SPEO2: Bird Creek, Sperry, OK

Data processed at Thu Jan 04 2018 23:08


All information presented herein is the property of the government of the United States of America and may be revised or deleted at any time without prior notice.
Dissemination of this information without the expressed written consent of the Public Affairs Office, Tulsa District U.S. Army Corps of Engineers is strictly prohibited.
These data are gathered electronically and, as presented, have not undergone any form of quality control. These data are not guaranteed to be valid or correct.
Go to home page.
Go to station list.

Upstream stations:

Downstream station:
Previous Day
Next Day
Current Day
    
SHEF ID:       SPEO2     Bird Creek near Sperry, OK
STATION TYPE:  

               PRECIP     STAGE  STAGE(2)  RIV-FLOW  WTR-TEMP   DIS-OXY        PH   CONDUCT  BAT-LOAD
                   in        ft        ft       cfs         F      mg/l        su   umho/cm      volt
              Ccp-Rev   Ccp-Rev   Ccp-Rev   Ccp-Rev   Ccp-Rev   Ccp-Rev   Ccp-Rev   Ccp-Rev   Ccp-Rev
(US/Central)
01/02 00:00      0.00      1.55      1.54        39     32.95     14.28      8.25       354     11.77
01/02 01:00      0.00      1.55      1.54        39     32.90     14.29      8.25       355     11.70
01/02 02:00      0.00      1.55      1.54        39     32.86     14.29      8.24       356     11.70
01/02 03:00      0.00      1.55      1.54        39     32.85     14.33      8.24       356     11.70
01/02 04:00      0.00      1.55      1.54        39     32.79     14.36      8.23       357     11.70
01/02 05:00      0.00      1.55      1.54        39     32.77     14.39      8.23       357     11.70
01/02 06:00      0.00      1.56      1.55        40     32.74     14.42      8.23       358     11.70
01/02 07:00      0.00      1.56      1.55        40     32.72     14.46      8.23       360     11.70
01/02 08:00      0.00      1.55      1.54        39     32.67     14.56      8.22       364     11.70
01/02 09:00      0.00      1.55      1.54        39     32.65     14.66      8.23       364     11.70
01/02 10:00      0.00      1.56      1.54        40     32.67     14.78      8.24       362     11.77
01/02 11:00      0.00      1.57      1.56        42     32.72     14.93      8.25       361     12.01
01/02 12:00      0.00      1.57      1.56        42     32.79     15.05      8.26       360     12.33
01/02 13:00      0.00      1.57      1.56        42     32.88     15.19      8.28       358     12.41
01/02 14:00      0.00      1.57      1.55        42     32.99     15.27      8.30       357     12.41
01/02 15:00      0.00      1.57      1.55        42     33.08     15.34      8.31       356     12.49
01/02 16:00      0.00      1.58      1.55        43     33.12     15.34      8.32       356     12.57
01/02 17:00      0.00      1.57      1.55        42     33.15     15.31      8.32       355     12.17
01/02 18:00      0.00      1.58      1.55        43     33.12     15.25      8.32       355     12.09
01/02 19:00      0.00      1.57      1.55        42     33.04     15.14      8.31       356     12.01
01/02 20:00      0.00      1.57      1.55        42     32.92     15.01      8.30       356     12.01
01/02 21:00      0.00      1.57      1.55        42     32.83     14.89      8.28       357     11.93
01/02 22:00      0.00      1.56      1.55        40     32.74     14.80      8.27       358     11.86
01/02 23:00      0.00      1.56      1.55        40     32.67     14.74      8.26       359     11.86